sensor_id;sensor_type;location;lat;lon;timestamp;P1;durP1;ratioP1;P2;durP2;ratioP2
2390;SDS011;22957;50.824;4.360;2023-05-24T00:01:17;6.40;;;1.60;;
2390;SDS011;22957;50.824;4.360;2023-05-24T00:03:52;10.50;;;1.50;;
2390;SDS011;22957;50.824;4.360;2023-05-24T00:06:22;15.47;;;2.17;;
2390;SDS011;22957;50.824;4.360;2023-05-24T00:08:50;13.27;;;2.30;;
2390;SDS011;22957;50.824;4.360;2023-05-24T00:11:16;19.30;;;2.80;;
2390;SDS011;22957;50.824;4.360;2023-05-24T00:13:42;26.70;;;2.50;;
2390;SDS011;22957;50.824;4.360;2023-05-24T00:16:07;10.20;;;1.87;;
2390;SDS011;22957;50.824;4.360;2023-05-24T00:18:33;17.40;;;2.50;;
2390;SDS011;22957;50.824;4.360;2023-05-24T00:21:08;11.13;;;1.70;;
2390;SDS011;22957;50.824;4.360;2023-05-24T00:23:35;12.03;;;1.70;;
2390;SDS011;22957;50.824;4.360;2023-05-24T00:26:02;5.40;;;1.43;;
2390;SDS011;22957;50.824;4.360;2023-05-24T00:28:28;10.27;;;1.60;;
2390;SDS011;22957;50.824;4.360;2023-05-24T00:30:55;11.23;;;1.93;;
2390;SDS011;22957;50.824;4.360;2023-05-24T00:33:21;13.53;;;2.40;;
2390;SDS011;22957;50.824;4.360;2023-05-24T00:35:47;14.60;;;3.00;;
2390;SDS011;22957;50.824;4.360;2023-05-24T00:38:13;13.63;;;1.77;;
2390;SDS011;22957;50.824;4.360;2023-05-24T00:40:39;14.73;;;2.37;;
2390;SDS011;22957;50.824;4.360;2023-05-24T00:43:05;14.37;;;2.40;;
2390;SDS011;22957;50.824;4.360;2023-05-24T00:45:30;8.90;;;2.00;;
2390;SDS011;22957;50.824;4.360;2023-05-24T00:47:56;17.90;;;2.80;;
2390;SDS011;22957;50.824;4.360;2023-05-24T00:50:22;6.37;;;1.60;;
2390;SDS011;22957;50.824;4.360;2023-05-24T00:52:48;15.57;;;2.07;;
2390;SDS011;22957;50.824;4.360;2023-05-24T00:55:15;15.50;;;2.63;;
2390;SDS011;22957;50.824;4.360;2023-05-24T00:57:41;11.43;;;2.57;;
2390;SDS011;22957;50.824;4.360;2023-05-24T01:00:07;12.63;;;1.80;;
2390;SDS011;22957;50.824;4.360;2023-05-24T01:02:35;9.90;;;2.10;;
2390;SDS011;22957;50.824;4.360;2023-05-24T01:05:01;17.23;;;2.60;;
2390;SDS011;22957;50.824;4.360;2023-05-24T01:07:45;24.03;;;2.80;;
2390;SDS011;22957;50.824;4.360;2023-05-24T01:16:22;7.67;;;1.83;;
2390;SDS011;22957;50.824;4.360;2023-05-24T01:18:55;12.40;;;2.40;;
2390;SDS011;22957;50.824;4.360;2023-05-24T01:29:31;15.13;;;1.80;;
2390;SDS011;22957;50.824;4.360;2023-05-24T01:31:58;10.57;;;2.37;;
2390;SDS011;22957;50.824;4.360;2023-05-24T01:34:24;10.87;;;2.27;;
2390;SDS011;22957;50.824;4.360;2023-05-24T01:36:50;24.47;;;3.00;;
2390;SDS011;22957;50.824;4.360;2023-05-24T01:39:16;12.80;;;2.53;;
2390;SDS011;22957;50.824;4.360;2023-05-24T01:44:38;14.83;;;2.37;;
2390;SDS011;22957;50.824;4.360;2023-05-24T01:49:56;13.10;;;2.27;;
2390;SDS011;22957;50.824;4.360;2023-05-24T01:52:30;11.70;;;2.40;;
2390;SDS011;22957;50.824;4.360;2023-05-24T01:54:57;12.30;;;2.80;;
2390;SDS011;22957;50.824;4.360;2023-05-24T01:57:24;23.17;;;3.17;;
2390;SDS011;22957;50.824;4.360;2023-05-24T01:59:51;12.80;;;2.63;;
2390;SDS011;22957;50.824;4.360;2023-05-24T02:02:18;9.00;;;2.30;;
2390;SDS011;22957;50.824;4.360;2023-05-24T02:04:44;17.27;;;2.30;;
2390;SDS011;22957;50.824;4.360;2023-05-24T02:07:09;18.97;;;2.80;;
2390;SDS011;22957;50.824;4.360;2023-05-24T02:09:35;15.43;;;2.40;;
2390;SDS011;22957;50.824;4.360;2023-05-24T02:12:01;14.83;;;1.93;;
2390;SDS011;22957;50.824;4.360;2023-05-24T02:14:27;12.17;;;2.40;;
2390;SDS011;22957;50.824;4.360;2023-05-24T02:16:53;8.80;;;2.10;;
2390;SDS011;22957;50.824;4.360;2023-05-24T02:19:22;21.70;;;3.10;;
2390;SDS011;22957;50.824;4.360;2023-05-24T02:21:50;8.80;;;1.97;;
2390;SDS011;22957;50.824;4.360;2023-05-24T02:24:17;8.33;;;2.13;;
2390;SDS011;22957;50.824;4.360;2023-05-24T02:26:43;11.33;;;2.43;;
2390;SDS011;22957;50.824;4.360;2023-05-24T02:29:09;11.80;;;2.50;;
2390;SDS011;22957;50.824;4.360;2023-05-24T02:31:34;19.40;;;2.33;;
2390;SDS011;22957;50.824;4.360;2023-05-24T02:34:00;12.13;;;1.77;;
2390;SDS011;22957;50.824;4.360;2023-05-24T02:36:26;21.53;;;3.07;;
2390;SDS011;22957;50.824;4.360;2023-05-24T02:38:52;12.23;;;2.37;;
2390;SDS011;22957;50.824;4.360;2023-05-24T02:41:18;11.63;;;2.73;;
2390;SDS011;22957;50.824;4.360;2023-05-24T02:43:44;13.50;;;2.30;;
2390;SDS011;22957;50.824;4.360;2023-05-24T02:46:10;15.93;;;2.93;;
2390;SDS011;22957;50.824;4.360;2023-05-24T02:48:35;18.23;;;2.90;;
2390;SDS011;22957;50.824;4.360;2023-05-24T02:51:01;14.43;;;2.43;;
2390;SDS011;22957;50.824;4.360;2023-05-24T02:53:30;16.57;;;2.40;;
2390;SDS011;22957;50.824;4.360;2023-05-24T02:55:57;9.90;;;2.20;;
2390;SDS011;22957;50.824;4.360;2023-05-24T02:58:23;11.97;;;2.40;;
2390;SDS011;22957;50.824;4.360;2023-05-24T03:00:49;12.67;;;2.73;;
2390;SDS011;22957;50.824;4.360;2023-05-24T03:03:15;18.73;;;2.60;;
2390;SDS011;22957;50.824;4.360;2023-05-24T03:05:40;12.67;;;2.43;;
2390;SDS011;22957;50.824;4.360;2023-05-24T03:08:06;11.77;;;2.30;;
2390;SDS011;22957;50.824;4.360;2023-05-24T03:10:32;20.83;;;3.90;;
2390;SDS011;22957;50.824;4.360;2023-05-24T03:12:57;14.73;;;2.87;;
2390;SDS011;22957;50.824;4.360;2023-05-24T03:15:23;15.67;;;2.90;;
2390;SDS011;22957;50.824;4.360;2023-05-24T03:17:48;15.20;;;2.47;;
2390;SDS011;22957;50.824;4.360;2023-05-24T03:20:14;15.77;;;2.73;;
2390;SDS011;22957;50.824;4.360;2023-05-24T03:22:41;25.37;;;3.17;;
2390;SDS011;22957;50.824;4.360;2023-05-24T03:25:07;11.53;;;2.53;;
2390;SDS011;22957;50.824;4.360;2023-05-24T03:27:33;24.40;;;2.90;;
2390;SDS011;22957;50.824;4.360;2023-05-24T03:30:00;12.83;;;1.93;;
2390;SDS011;22957;50.824;4.360;2023-05-24T03:32:25;15.67;;;2.10;;
2390;SDS011;22957;50.824;4.360;2023-05-24T03:34:51;15.73;;;2.10;;
2390;SDS011;22957;50.824;4.360;2023-05-24T03:37:17;18.73;;;2.27;;
2390;SDS011;22957;50.824;4.360;2023-05-24T03:39:42;19.73;;;2.80;;
2390;SDS011;22957;50.824;4.360;2023-05-24T03:42:08;12.53;;;2.30;;
2390;SDS011;22957;50.824;4.360;2023-05-24T03:44:33;12.43;;;2.33;;
2390;SDS011;22957;50.824;4.360;2023-05-24T03:46:59;14.70;;;3.13;;
2390;SDS011;22957;50.824;4.360;2023-05-24T03:49:25;15.00;;;3.17;;
2390;SDS011;22957;50.824;4.360;2023-05-24T03:51:50;19.23;;;2.93;;
2390;SDS011;22957;50.824;4.360;2023-05-24T03:54:16;16.43;;;2.80;;
2390;SDS011;22957;50.824;4.360;2023-05-24T03:56:42;11.40;;;2.77;;
2390;SDS011;22957;50.824;4.360;2023-05-24T03:59:08;15.30;;;2.57;;
2390;SDS011;22957;50.824;4.360;2023-05-24T04:01:33;16.90;;;2.57;;
2390;SDS011;22957;50.824;4.360;2023-05-24T04:04:01;15.80;;;2.90;;
2390;SDS011;22957;50.824;4.360;2023-05-24T04:06:28;13.17;;;2.40;;
2390;SDS011;22957;50.824;4.360;2023-05-24T04:08:54;14.60;;;2.90;;
2390;SDS011;22957;50.824;4.360;2023-05-24T04:11:21;9.43;;;1.93;;
2390;SDS011;22957;50.824;4.360;2023-05-24T04:13:47;14.17;;;2.17;;
2390;SDS011;22957;50.824;4.360;2023-05-24T04:16:14;12.90;;;2.77;;
2390;SDS011;22957;50.824;4.360;2023-05-24T04:18:40;7.30;;;1.90;;
2390;SDS011;22957;50.824;4.360;2023-05-24T04:21:05;12.70;;;2.53;;
2390;SDS011;22957;50.824;4.360;2023-05-24T04:23:31;12.50;;;2.30;;
2390;SDS011;22957;50.824;4.360;2023-05-24T04:25:56;5.70;;;1.87;;
2390;SDS011;22957;50.824;4.360;2023-05-24T04:28:22;13.03;;;2.00;;
2390;SDS011;22957;50.824;4.360;2023-05-24T04:30:49;23.27;;;3.00;;
2390;SDS011;22957;50.824;4.360;2023-05-24T04:33:15;21.43;;;3.20;;
2390;SDS011;22957;50.824;4.360;2023-05-24T04:35:41;11.27;;;2.27;;
2390;SDS011;22957;50.824;4.360;2023-05-24T04:38:08;9.30;;;2.00;;
2390;SDS011;22957;50.824;4.360;2023-05-24T04:40:36;11.37;;;2.47;;
2390;SDS011;22957;50.824;4.360;2023-05-24T04:43:02;14.67;;;2.27;;
2390;SDS011;22957;50.824;4.360;2023-05-24T04:45:28;13.50;;;2.40;;
2390;SDS011;22957;50.824;4.360;2023-05-24T04:47:55;11.73;;;2.87;;
2390;SDS011;22957;50.824;4.360;2023-05-24T04:50:21;12.17;;;2.67;;
2390;SDS011;22957;50.824;4.360;2023-05-24T04:52:46;9.67;;;2.43;;
2390;SDS011;22957;50.824;4.360;2023-05-24T04:55:12;14.77;;;2.87;;
2390;SDS011;22957;50.824;4.360;2023-05-24T04:57:37;9.80;;;1.90;;
2390;SDS011;22957;50.824;4.360;2023-05-24T05:00:03;13.03;;;2.70;;
2390;SDS011;22957;50.824;4.360;2023-05-24T05:02:31;15.27;;;2.73;;
2390;SDS011;22957;50.824;4.360;2023-05-24T05:04:57;12.77;;;2.30;;
2390;SDS011;22957;50.824;4.360;2023-05-24T05:07:22;16.90;;;3.07;;
2390;SDS011;22957;50.824;4.360;2023-05-24T05:09:48;15.50;;;3.17;;
2390;SDS011;22957;50.824;4.360;2023-05-24T05:12:14;13.50;;;3.27;;
2390;SDS011;22957;50.824;4.360;2023-05-24T05:14:39;11.93;;;2.47;;
2390;SDS011;22957;50.824;4.360;2023-05-24T05:17:06;17.53;;;3.20;;
2390;SDS011;22957;50.824;4.360;2023-05-24T05:19:31;18.30;;;3.57;;
2390;SDS011;22957;50.824;4.360;2023-05-24T05:21:57;16.80;;;3.30;;
2390;SDS011;22957;50.824;4.360;2023-05-24T05:24:22;11.33;;;2.80;;
2390;SDS011;22957;50.824;4.360;2023-05-24T05:26:48;14.90;;;3.43;;
2390;SDS011;22957;50.824;4.360;2023-05-24T05:29:13;16.13;;;3.10;;
2390;SDS011;22957;50.824;4.360;2023-05-24T05:31:39;11.83;;;2.30;;
2390;SDS011;22957;50.824;4.360;2023-05-24T05:34:05;17.03;;;4.03;;
2390;SDS011;22957;50.824;4.360;2023-05-24T05:36:33;14.20;;;2.60;;
2390;SDS011;22957;50.824;4.360;2023-05-24T05:39:04;20.43;;;3.23;;
2390;SDS011;22957;50.824;4.360;2023-05-24T05:41:35;15.10;;;2.97;;
2390;SDS011;22957;50.824;4.360;2023-05-24T05:44:01;16.03;;;3.30;;
2390;SDS011;22957;50.824;4.360;2023-05-24T05:46:27;14.97;;;2.67;;
2390;SDS011;22957;50.824;4.360;2023-05-24T05:48:52;10.50;;;3.13;;
2390;SDS011;22957;50.824;4.360;2023-05-24T05:51:18;14.83;;;2.97;;
2390;SDS011;22957;50.824;4.360;2023-05-24T05:53:44;13.97;;;3.67;;
2390;SDS011;22957;50.824;4.360;2023-05-24T05:56:09;11.87;;;2.80;;
2390;SDS011;22957;50.824;4.360;2023-05-24T05:58:35;11.23;;;2.70;;
2390;SDS011;22957;50.824;4.360;2023-05-24T06:01:02;13.70;;;2.70;;
2390;SDS011;22957;50.824;4.360;2023-05-24T06:03:28;14.80;;;3.10;;
2390;SDS011;22957;50.824;4.360;2023-05-24T06:05:54;10.20;;;3.00;;
2390;SDS011;22957;50.824;4.360;2023-05-24T06:08:19;11.03;;;2.43;;
2390;SDS011;22957;50.824;4.360;2023-05-24T06:10:45;13.30;;;3.23;;
2390;SDS011;22957;50.824;4.360;2023-05-24T06:13:11;13.07;;;3.37;;
2390;SDS011;22957;50.824;4.360;2023-05-24T06:15:37;11.63;;;2.47;;
2390;SDS011;22957;50.824;4.360;2023-05-24T06:18:03;12.30;;;2.63;;
2390;SDS011;22957;50.824;4.360;2023-05-24T06:20:29;13.10;;;3.53;;
2390;SDS011;22957;50.824;4.360;2023-05-24T06:22:55;14.97;;;3.13;;
2390;SDS011;22957;50.824;4.360;2023-05-24T06:25:21;16.27;;;3.40;;
2390;SDS011;22957;50.824;4.360;2023-05-24T06:27:48;16.47;;;3.10;;
2390;SDS011;22957;50.824;4.360;2023-05-24T06:30:15;14.70;;;2.73;;
2390;SDS011;22957;50.824;4.360;2023-05-24T06:32:41;11.10;;;2.53;;
2390;SDS011;22957;50.824;4.360;2023-05-24T06:35:07;15.90;;;2.70;;
2390;SDS011;22957;50.824;4.360;2023-05-24T06:37:33;8.47;;;3.17;;
2390;SDS011;22957;50.824;4.360;2023-05-24T06:39:58;13.67;;;2.93;;
2390;SDS011;22957;50.824;4.360;2023-05-24T06:42:24;18.40;;;2.90;;
2390;SDS011;22957;50.824;4.360;2023-05-24T06:44:49;15.63;;;3.03;;
2390;SDS011;22957;50.824;4.360;2023-05-24T06:47:15;10.00;;;2.73;;
2390;SDS011;22957;50.824;4.360;2023-05-24T06:49:41;14.03;;;3.00;;
2390;SDS011;22957;50.824;4.360;2023-05-24T06:52:06;9.87;;;2.50;;
2390;SDS011;22957;50.824;4.360;2023-05-24T06:54:32;14.50;;;2.30;;
2390;SDS011;22957;50.824;4.360;2023-05-24T06:56:58;13.83;;;2.60;;
2390;SDS011;22957;50.824;4.360;2023-05-24T06:59:24;14.00;;;3.30;;
2390;SDS011;22957;50.824;4.360;2023-05-24T07:01:49;11.40;;;2.67;;
2390;SDS011;22957;50.824;4.360;2023-05-24T07:04:21;15.90;;;3.20;;
2390;SDS011;22957;50.824;4.360;2023-05-24T07:06:50;13.87;;;2.37;;
2390;SDS011;22957;50.824;4.360;2023-05-24T07:09:16;10.63;;;2.90;;
2390;SDS011;22957;50.824;4.360;2023-05-24T07:11:45;10.97;;;3.33;;
2390;SDS011;22957;50.824;4.360;2023-05-24T07:14:11;14.03;;;2.77;;
2390;SDS011;22957;50.824;4.360;2023-05-24T07:16:36;15.50;;;3.10;;
2390;SDS011;22957;50.824;4.360;2023-05-24T07:19:02;12.43;;;2.40;;
2390;SDS011;22957;50.824;4.360;2023-05-24T07:21:27;11.47;;;2.50;;
2390;SDS011;22957;50.824;4.360;2023-05-24T07:23:53;15.03;;;3.20;;
2390;SDS011;22957;50.824;4.360;2023-05-24T07:26:18;13.00;;;2.60;;
2390;SDS011;22957;50.824;4.360;2023-05-24T07:28:44;12.63;;;2.83;;
2390;SDS011;22957;50.824;4.360;2023-05-24T07:31:10;17.43;;;3.10;;
2390;SDS011;22957;50.824;4.360;2023-05-24T07:33:36;10.23;;;2.50;;
2390;SDS011;22957;50.824;4.360;2023-05-24T07:36:02;14.10;;;2.60;;
2390;SDS011;22957;50.824;4.360;2023-05-24T07:38:32;15.60;;;3.53;;
2390;SDS011;22957;50.824;4.360;2023-05-24T07:40:59;13.00;;;3.47;;
2390;SDS011;22957;50.824;4.360;2023-05-24T07:43:25;15.73;;;3.97;;
2390;SDS011;22957;50.824;4.360;2023-05-24T07:45:51;13.17;;;3.27;;
2390;SDS011;22957;50.824;4.360;2023-05-24T07:48:18;13.10;;;3.60;;
2390;SDS011;22957;50.824;4.360;2023-05-24T07:50:44;13.73;;;3.23;;
2390;SDS011;22957;50.824;4.360;2023-05-24T07:53:12;19.77;;;3.70;;
2390;SDS011;22957;50.824;4.360;2023-05-24T07:55:39;8.93;;;3.20;;
2390;SDS011;22957;50.824;4.360;2023-05-24T07:58:04;14.67;;;3.93;;
2390;SDS011;22957;50.824;4.360;2023-05-24T08:00:30;13.00;;;3.73;;
2390;SDS011;22957;50.824;4.360;2023-05-24T08:02:57;17.73;;;4.40;;
2390;SDS011;22957;50.824;4.360;2023-05-24T08:05:22;13.40;;;3.50;;
2390;SDS011;22957;50.824;4.360;2023-05-24T08:07:48;14.50;;;4.13;;
2390;SDS011;22957;50.824;4.360;2023-05-24T08:10:14;11.70;;;3.23;;
2390;SDS011;22957;50.824;4.360;2023-05-24T08:12:40;16.93;;;4.50;;
2390;SDS011;22957;50.824;4.360;2023-05-24T08:15:06;17.90;;;4.27;;
2390;SDS011;22957;50.824;4.360;2023-05-24T08:17:32;13.63;;;3.40;;
2390;SDS011;22957;50.824;4.360;2023-05-24T08:19:58;14.77;;;3.67;;
2390;SDS011;22957;50.824;4.360;2023-05-24T08:22:23;15.43;;;3.10;;
2390;SDS011;22957;50.824;4.360;2023-05-24T08:24:49;17.17;;;8.20;;
2390;SDS011;22957;50.824;4.360;2023-05-24T08:27:16;11.93;;;3.40;;
2390;SDS011;22957;50.824;4.360;2023-05-24T08:29:41;12.43;;;3.37;;
2390;SDS011;22957;50.824;4.360;2023-05-24T08:32:07;17.90;;;3.90;;
2390;SDS011;22957;50.824;4.360;2023-05-24T08:34:36;10.23;;;3.27;;
2390;SDS011;22957;50.824;4.360;2023-05-24T08:37:02;12.93;;;3.67;;
2390;SDS011;22957;50.824;4.360;2023-05-24T08:39:29;12.50;;;3.20;;
2390;SDS011;22957;50.824;4.360;2023-05-24T08:41:55;8.70;;;2.83;;
2390;SDS011;22957;50.824;4.360;2023-05-24T08:44:22;14.50;;;4.17;;
2390;SDS011;22957;50.824;4.360;2023-05-24T08:46:48;8.80;;;3.27;;
2390;SDS011;22957;50.824;4.360;2023-05-24T08:49:15;17.07;;;3.93;;
2390;SDS011;22957;50.824;4.360;2023-05-24T08:51:42;11.10;;;3.67;;
2390;SDS011;22957;50.824;4.360;2023-05-24T08:54:09;12.57;;;3.47;;
2390;SDS011;22957;50.824;4.360;2023-05-24T08:56:37;13.07;;;4.57;;
2390;SDS011;22957;50.824;4.360;2023-05-24T08:59:04;11.50;;;3.37;;
2390;SDS011;22957;50.824;4.360;2023-05-24T09:01:30;14.10;;;4.10;;
2390;SDS011;22957;50.824;4.360;2023-05-24T09:03:56;16.50;;;3.00;;
2390;SDS011;22957;50.824;4.360;2023-05-24T09:06:24;20.53;;;5.23;;
2390;SDS011;22957;50.824;4.360;2023-05-24T09:08:51;11.17;;;4.40;;
2390;SDS011;22957;50.824;4.360;2023-05-24T09:11:18;6.73;;;3.27;;
2390;SDS011;22957;50.824;4.360;2023-05-24T09:13:45;16.00;;;4.07;;
2390;SDS011;22957;50.824;4.360;2023-05-24T09:16:12;15.43;;;4.40;;
2390;SDS011;22957;50.824;4.360;2023-05-24T09:18:39;20.00;;;5.37;;
2390;SDS011;22957;50.824;4.360;2023-05-24T09:21:06;14.37;;;3.97;;
2390;SDS011;22957;50.824;4.360;2023-05-24T09:23:33;16.10;;;4.00;;
2390;SDS011;22957;50.824;4.360;2023-05-24T09:26:05;12.23;;;5.03;;
2390;SDS011;22957;50.824;4.360;2023-05-24T09:28:35;17.43;;;5.23;;
2390;SDS011;22957;50.824;4.360;2023-05-24T09:31:02;17.07;;;4.60;;
2390;SDS011;22957;50.824;4.360;2023-05-24T09:33:28;19.53;;;7.03;;
2390;SDS011;22957;50.824;4.360;2023-05-24T09:35:56;22.10;;;6.40;;
2390;SDS011;22957;50.824;4.360;2023-05-24T09:38:23;15.63;;;5.23;;
2390;SDS011;22957;50.824;4.360;2023-05-24T09:41:02;13.90;;;5.43;;
2390;SDS011;22957;50.824;4.360;2023-05-24T09:43:32;14.07;;;5.63;;
2390;SDS011;22957;50.824;4.360;2023-05-24T09:46:02;8.90;;;5.60;;
2390;SDS011;22957;50.824;4.360;2023-05-24T09:48:29;15.70;;;5.80;;
2390;SDS011;22957;50.824;4.360;2023-05-24T09:51:01;15.13;;;5.67;;
2390;SDS011;22957;50.824;4.360;2023-05-24T09:53:29;18.83;;;6.40;;
2390;SDS011;22957;50.824;4.360;2023-05-24T09:55:57;13.63;;;5.67;;
2390;SDS011;22957;50.824;4.360;2023-05-24T09:58:28;14.43;;;7.27;;
2390;SDS011;22957;50.824;4.360;2023-05-24T10:01:06;19.03;;;6.90;;
2390;SDS011;22957;50.824;4.360;2023-05-24T10:03:34;20.17;;;7.13;;
2390;SDS011;22957;50.824;4.360;2023-05-24T10:06:01;19.90;;;8.57;;
2390;SDS011;22957;50.824;4.360;2023-05-24T10:08:30;20.77;;;7.17;;
2390;SDS011;22957;50.824;4.360;2023-05-24T10:10:59;22.70;;;7.73;;
2390;SDS011;22957;50.824;4.360;2023-05-24T10:13:28;16.30;;;7.70;;
2390;SDS011;22957;50.824;4.360;2023-05-24T10:15:54;13.87;;;7.70;;
2390;SDS011;22957;50.824;4.360;2023-05-24T10:18:20;18.07;;;7.67;;
2390;SDS011;22957;50.824;4.360;2023-05-24T10:20:45;13.37;;;7.40;;
2390;SDS011;22957;50.824;4.360;2023-05-24T10:23:14;16.17;;;8.00;;
2390;SDS011;22957;50.824;4.360;2023-05-24T10:25:49;19.77;;;7.77;;
2390;SDS011;22957;50.824;4.360;2023-05-24T10:28:19;15.93;;;6.10;;
2390;SDS011;22957;50.824;4.360;2023-05-24T10:30:59;17.67;;;7.60;;
2390;SDS011;22957;50.824;4.360;2023-05-24T10:33:30;18.10;;;6.17;;
2390;SDS011;22957;50.824;4.360;2023-05-24T10:35:58;14.53;;;5.67;;
2390;SDS011;22957;50.824;4.360;2023-05-24T10:38:24;13.40;;;5.53;;
2390;SDS011;22957;50.824;4.360;2023-05-24T10:40:50;15.10;;;6.00;;
2390;SDS011;22957;50.824;4.360;2023-05-24T10:43:16;12.87;;;5.20;;
2390;SDS011;22957;50.824;4.360;2023-05-24T10:45:42;14.20;;;5.83;;
2390;SDS011;22957;50.824;4.360;2023-05-24T10:50:41;23.30;;;5.30;;
2390;SDS011;22957;50.824;4.360;2023-05-24T10:53:11;16.23;;;4.70;;
2390;SDS011;22957;50.824;4.360;2023-05-24T10:55:50;14.40;;;5.20;;
2390;SDS011;22957;50.824;4.360;2023-05-24T10:58:27;16.23;;;5.40;;
2390;SDS011;22957;50.824;4.360;2023-05-24T11:01:13;14.57;;;5.17;;
2390;SDS011;22957;50.824;4.360;2023-05-24T11:03:50;15.30;;;5.13;;
2390;SDS011;22957;50.824;4.360;2023-05-24T11:06:16;10.70;;;4.47;;
2390;SDS011;22957;50.824;4.360;2023-05-24T11:08:42;9.43;;;4.30;;
2390;SDS011;22957;50.824;4.360;2023-05-24T11:11:09;13.47;;;4.00;;
2390;SDS011;22957;50.824;4.360;2023-05-24T11:13:35;13.13;;;4.17;;
2390;SDS011;22957;50.824;4.360;2023-05-24T11:16:01;18.40;;;4.63;;
2390;SDS011;22957;50.824;4.360;2023-05-24T11:18:27;12.10;;;4.07;;
2390;SDS011;22957;50.824;4.360;2023-05-24T11:20:53;14.53;;;3.57;;
2390;SDS011;22957;50.824;4.360;2023-05-24T11:23:21;13.43;;;3.70;;
2390;SDS011;22957;50.824;4.360;2023-05-24T11:25:46;10.77;;;3.70;;
2390;SDS011;22957;50.824;4.360;2023-05-24T11:28:12;9.57;;;3.30;;
2390;SDS011;22957;50.824;4.360;2023-05-24T11:33:04;11.20;;;3.70;;
2390;SDS011;22957;50.824;4.360;2023-05-24T11:35:37;11.87;;;3.20;;
2390;SDS011;22957;50.824;4.360;2023-05-24T11:38:03;8.50;;;3.10;;
2390;SDS011;22957;50.824;4.360;2023-05-24T11:40:35;16.70;;;3.97;;
2390;SDS011;22957;50.824;4.360;2023-05-24T11:43:04;13.03;;;3.10;;
2390;SDS011;22957;50.824;4.360;2023-05-24T11:45:30;12.03;;;3.60;;
2390;SDS011;22957;50.824;4.360;2023-05-24T11:47:56;10.27;;;3.43;;
2390;SDS011;22957;50.824;4.360;2023-05-24T11:50:24;8.37;;;3.37;;
2390;SDS011;22957;50.824;4.360;2023-05-24T11:52:50;10.20;;;3.50;;
2390;SDS011;22957;50.824;4.360;2023-05-24T11:55:22;15.83;;;3.93;;
2390;SDS011;22957;50.824;4.360;2023-05-24T11:57:49;10.20;;;3.73;;
2390;SDS011;22957;50.824;4.360;2023-05-24T12:00:24;7.00;;;3.13;;
2390;SDS011;22957;50.824;4.360;2023-05-24T12:02:50;11.30;;;3.00;;
2390;SDS011;22957;50.824;4.360;2023-05-24T12:05:17;10.30;;;2.67;;
2390;SDS011;22957;50.824;4.360;2023-05-24T12:07:43;11.27;;;3.40;;
2390;SDS011;22957;50.824;4.360;2023-05-24T12:10:13;11.27;;;3.80;;
2390;SDS011;22957;50.824;4.360;2023-05-24T12:12:42;16.93;;;3.50;;
2390;SDS011;22957;50.824;4.360;2023-05-24T12:15:09;8.47;;;3.37;;
2390;SDS011;22957;50.824;4.360;2023-05-24T12:17:35;10.40;;;2.63;;
2390;SDS011;22957;50.824;4.360;2023-05-24T12:20:01;8.10;;;3.10;;
2390;SDS011;22957;50.824;4.360;2023-05-24T12:22:27;8.93;;;3.20;;
2390;SDS011;22957;50.824;4.360;2023-05-24T12:24:55;12.50;;;3.37;;
2390;SDS011;22957;50.824;4.360;2023-05-24T12:27:24;10.23;;;3.00;;
2390;SDS011;22957;50.824;4.360;2023-05-24T12:29:55;10.70;;;3.00;;
2390;SDS011;22957;50.824;4.360;2023-05-24T12:32:20;10.60;;;3.77;;
2390;SDS011;22957;50.824;4.360;2023-05-24T12:34:47;10.90;;;3.10;;
2390;SDS011;22957;50.824;4.360;2023-05-24T12:37:14;13.10;;;3.20;;
2390;SDS011;22957;50.824;4.360;2023-05-24T12:39:42;10.20;;;2.63;;
2390;SDS011;22957;50.824;4.360;2023-05-24T12:42:08;9.37;;;3.80;;
2390;SDS011;22957;50.824;4.360;2023-05-24T12:44:36;7.90;;;3.93;;
2390;SDS011;22957;50.824;4.360;2023-05-24T12:47:02;8.43;;;3.40;;
2390;SDS011;22957;50.824;4.360;2023-05-24T12:49:30;11.40;;;3.40;;
2390;SDS011;22957;50.824;4.360;2023-05-24T12:51:56;9.07;;;3.57;;
2390;SDS011;22957;50.824;4.360;2023-05-24T12:54:22;11.17;;;3.07;;
2390;SDS011;22957;50.824;4.360;2023-05-24T12:56:49;11.93;;;3.57;;
2390;SDS011;22957;50.824;4.360;2023-05-24T12:59:15;15.83;;;3.83;;
2390;SDS011;22957;50.824;4.360;2023-05-24T13:01:41;11.80;;;3.53;;
2390;SDS011;22957;50.824;4.360;2023-05-24T13:04:07;8.63;;;4.17;;
2390;SDS011;22957;50.824;4.360;2023-05-24T13:06:34;10.37;;;3.80;;
2390;SDS011;22957;50.824;4.360;2023-05-24T13:09:01;10.70;;;4.13;;
2390;SDS011;22957;50.824;4.360;2023-05-24T13:11:27;15.60;;;4.63;;
2390;SDS011;22957;50.824;4.360;2023-05-24T13:13:55;9.37;;;4.40;;
2390;SDS011;22957;50.824;4.360;2023-05-24T13:16:21;14.07;;;3.93;;
2390;SDS011;22957;50.824;4.360;2023-05-24T13:18:47;13.30;;;4.30;;
2390;SDS011;22957;50.824;4.360;2023-05-24T13:21:13;10.80;;;3.87;;
2390;SDS011;22957;50.824;4.360;2023-05-24T13:23:39;7.63;;;3.93;;
2390;SDS011;22957;50.824;4.360;2023-05-24T13:26:07;14.20;;;3.73;;
2390;SDS011;22957;50.824;4.360;2023-05-24T13:28:33;12.10;;;3.80;;
2390;SDS011;22957;50.824;4.360;2023-05-24T13:30:58;12.47;;;3.40;;
2390;SDS011;22957;50.824;4.360;2023-05-24T13:33:24;10.47;;;3.97;;
2390;SDS011;22957;50.824;4.360;2023-05-24T13:35:50;12.00;;;3.10;;
2390;SDS011;22957;50.824;4.360;2023-05-24T13:38:17;18.37;;;3.80;;
2390;SDS011;22957;50.824;4.360;2023-05-24T13:40:44;9.40;;;3.70;;
2390;SDS011;22957;50.824;4.360;2023-05-24T13:43:09;6.77;;;3.50;;
2390;SDS011;22957;50.824;4.360;2023-05-24T13:45:35;12.13;;;3.23;;
2390;SDS011;22957;50.824;4.360;2023-05-24T13:48:00;10.03;;;4.70;;
2390;SDS011;22957;50.824;4.360;2023-05-24T13:50:33;10.40;;;3.53;;
2390;SDS011;22957;50.824;4.360;2023-05-24T13:53:00;12.67;;;3.77;;
2390;SDS011;22957;50.824;4.360;2023-05-24T13:55:30;10.80;;;3.27;;
2390;SDS011;22957;50.824;4.360;2023-05-24T13:57:57;9.30;;;3.33;;
2390;SDS011;22957;50.824;4.360;2023-05-24T14:00:23;12.00;;;3.17;;
2390;SDS011;22957;50.824;4.360;2023-05-24T14:02:50;5.83;;;2.83;;
2390;SDS011;22957;50.824;4.360;2023-05-24T14:05:16;17.10;;;4.40;;
2390;SDS011;22957;50.824;4.360;2023-05-24T14:07:42;10.53;;;3.70;;
2390;SDS011;22957;50.824;4.360;2023-05-24T14:10:08;10.57;;;3.10;;
2390;SDS011;22957;50.824;4.360;2023-05-24T14:12:34;7.70;;;2.93;;
2390;SDS011;22957;50.824;4.360;2023-05-24T14:14:59;13.40;;;4.40;;
2390;SDS011;22957;50.824;4.360;2023-05-24T14:17:25;18.80;;;4.60;;
2390;SDS011;22957;50.824;4.360;2023-05-24T14:19:51;12.47;;;3.87;;
2390;SDS011;22957;50.824;4.360;2023-05-24T14:22:17;11.93;;;3.87;;
2390;SDS011;22957;50.824;4.360;2023-05-24T14:24:42;11.07;;;4.00;;
2390;SDS011;22957;50.824;4.360;2023-05-24T14:27:08;18.03;;;4.20;;
2390;SDS011;22957;50.824;4.360;2023-05-24T14:29:33;18.07;;;4.80;;
2390;SDS011;22957;50.824;4.360;2023-05-24T14:31:59;17.40;;;4.70;;
2390;SDS011;22957;50.824;4.360;2023-05-24T14:34:25;10.50;;;4.30;;
2390;SDS011;22957;50.824;4.360;2023-05-24T14:36:50;15.30;;;5.13;;
2390;SDS011;22957;50.824;4.360;2023-05-24T14:39:16;19.07;;;5.10;;
2390;SDS011;22957;50.824;4.360;2023-05-24T14:41:41;11.00;;;4.60;;
2390;SDS011;22957;50.824;4.360;2023-05-24T14:44:07;13.50;;;3.90;;
2390;SDS011;22957;50.824;4.360;2023-05-24T14:46:33;7.50;;;4.27;;
2390;SDS011;22957;50.824;4.360;2023-05-24T14:48:58;11.13;;;3.67;;
2390;SDS011;22957;50.824;4.360;2023-05-24T14:51:26;11.03;;;5.37;;
2390;SDS011;22957;50.824;4.360;2023-05-24T14:53:51;12.30;;;3.30;;
2390;SDS011;22957;50.824;4.360;2023-05-24T14:56:17;13.63;;;3.80;;
2390;SDS011;22957;50.824;4.360;2023-05-24T14:58:42;13.03;;;3.53;;
2390;SDS011;22957;50.824;4.360;2023-05-24T15:01:08;12.97;;;3.30;;
2390;SDS011;22957;50.824;4.360;2023-05-24T15:03:34;9.43;;;3.27;;
2390;SDS011;22957;50.824;4.360;2023-05-24T15:06:00;14.20;;;3.87;;
2390;SDS011;22957;50.824;4.360;2023-05-24T15:08:25;17.13;;;3.83;;
2390;SDS011;22957;50.824;4.360;2023-05-24T15:10:51;13.00;;;3.50;;
2390;SDS011;22957;50.824;4.360;2023-05-24T15:13:17;13.63;;;3.80;;